createdAt,value
2019-03-17T00:01:57.645Z,0.80
2019-03-17T00:04:31.352Z,0.80
2019-03-17T00:06:55.944Z,1.00
2019-03-17T00:09:24.010Z,1.00
2019-03-17T00:11:52.147Z,0.82
2019-03-17T00:14:20.464Z,0.80
2019-03-17T00:16:48.561Z,0.98
2019-03-17T00:19:16.749Z,1.00
2019-03-17T00:21:45.211Z,1.22
2019-03-17T00:24:13.291Z,0.93
2019-03-17T00:26:41.383Z,0.95
2019-03-17T00:29:09.485Z,0.82
2019-03-17T00:31:37.634Z,0.75
2019-03-17T00:34:05.731Z,0.70
2019-03-17T00:36:33.804Z,0.72
2019-03-17T00:39:01.892Z,0.78
2019-03-17T00:41:31.774Z,1.02
2019-03-17T00:44:00.018Z,0.70
2019-03-17T00:46:28.169Z,1.20
2019-03-17T00:48:56.244Z,1.20
2019-03-17T00:51:24.319Z,1.30
2019-03-17T00:53:52.387Z,0.90
2019-03-17T00:56:20.678Z,1.00
2019-03-17T00:58:48.853Z,0.90
2019-03-17T01:01:17.745Z,0.80
2019-03-17T01:03:46.907Z,0.80
2019-03-17T01:06:15.010Z,0.90
2019-03-17T01:08:43.180Z,1.10
2019-03-17T01:11:11.378Z,1.10
2019-03-17T01:13:39.498Z,1.05
2019-03-17T01:16:07.674Z,1.00
2019-03-17T01:18:35.775Z,0.85
2019-03-17T01:21:04.028Z,1.07
2019-03-17T01:23:32.110Z,0.90
2019-03-17T01:26:00.500Z,0.95
2019-03-17T01:28:28.570Z,0.80
2019-03-17T01:30:56.793Z,0.93
2019-03-17T01:33:24.952Z,1.00
2019-03-17T01:35:54.770Z,0.90
2019-03-17T01:38:22.885Z,0.70
2019-03-17T01:40:50.985Z,0.70
2019-03-17T01:43:19.151Z,0.60
2019-03-17T01:45:47.315Z,0.75
2019-03-17T01:48:15.472Z,1.02
2019-03-17T01:50:43.663Z,0.70
2019-03-17T01:53:11.748Z,0.75
2019-03-17T01:55:39.844Z,0.80
2019-03-17T01:58:07.904Z,0.70
2019-03-17T02:00:36.095Z,0.72
2019-03-17T02:03:04.331Z,1.17
2019-03-17T02:05:32.408Z,0.82
2019-03-17T02:08:00.478Z,0.75
2019-03-17T02:10:28.611Z,0.70
2019-03-17T02:12:56.664Z,0.70
2019-03-17T02:15:24.801Z,0.82
2019-03-17T02:17:52.894Z,0.75
2019-03-17T02:20:21.045Z,1.05
2019-03-17T02:22:49.121Z,0.75
2019-03-17T02:25:17.217Z,0.75
2019-03-17T02:27:45.358Z,0.80
2019-03-17T02:30:13.980Z,0.68
2019-03-17T02:32:42.149Z,0.60
2019-03-17T02:35:10.297Z,0.60
2019-03-17T02:37:38.548Z,0.60
2019-03-17T02:40:06.624Z,0.95
2019-03-17T02:42:34.755Z,0.53
2019-03-17T02:45:03.016Z,0.75
2019-03-17T02:47:31.074Z,0.50
2019-03-17T02:49:59.218Z,0.53
2019-03-17T02:52:27.459Z,0.98
2019-03-17T02:54:56.892Z,0.70
2019-03-17T02:57:25.029Z,0.70
2019-03-17T02:59:53.147Z,0.65
2019-03-17T03:02:22.914Z,0.50
2019-03-17T03:04:51.124Z,0.67
2019-03-17T03:07:19.294Z,0.60
2019-03-17T03:09:47.432Z,0.70
2019-03-17T03:12:15.542Z,0.60
2019-03-17T03:14:43.709Z,0.40
2019-03-17T03:17:11.839Z,0.60
2019-03-17T03:22:09.811Z,0.62
2019-03-17T03:24:37.894Z,0.60
2019-03-17T03:27:06.010Z,0.57
2019-03-17T03:29:34.076Z,0.60
2019-03-17T03:32:02.202Z,0.60
2019-03-17T03:34:30.294Z,0.60
2019-03-17T03:36:58.442Z,0.60
2019-03-17T03:39:26.488Z,0.88
2019-03-17T03:41:54.568Z,0.80
2019-03-17T03:44:22.623Z,0.68
2019-03-17T03:46:51.173Z,0.93
2019-03-17T03:49:19.326Z,1.00
2019-03-17T03:51:47.409Z,0.70
2019-03-17T03:54:15.519Z,0.70
2019-03-17T03:56:43.693Z,0.90
2019-03-17T03:59:11.831Z,0.70
2019-03-17T04:01:39.995Z,0.60
2019-03-17T04:04:08.070Z,0.80
2019-03-17T04:06:36.270Z,0.72
2019-03-17T04:09:06.098Z,0.85
2019-03-17T04:14:03.198Z,0.80
2019-03-17T04:16:31.418Z,0.95
2019-03-17T04:18:59.541Z,0.70
2019-03-17T04:21:27.634Z,0.90
2019-03-17T04:23:55.699Z,0.90
2019-03-17T04:26:23.774Z,0.80
2019-03-17T04:28:51.886Z,0.80
2019-03-17T04:31:19.999Z,0.60
2019-03-17T04:33:48.123Z,1.00
2019-03-17T04:36:16.247Z,0.78
2019-03-17T04:38:44.383Z,0.80
2019-03-17T04:41:12.481Z,0.70
2019-03-17T04:43:40.615Z,0.60
2019-03-17T04:46:08.756Z,0.80
2019-03-17T04:48:36.939Z,0.80
2019-03-17T04:51:05.143Z,0.90
2019-03-17T04:53:33.261Z,0.85
2019-03-17T04:56:01.387Z,0.95
2019-03-17T04:58:29.529Z,0.70
2019-03-17T05:00:57.591Z,0.70
2019-03-17T05:03:25.652Z,0.72
2019-03-17T05:05:53.735Z,0.85
2019-03-17T05:08:21.852Z,0.80
2019-03-17T05:10:49.965Z,0.57
2019-03-17T05:13:18.058Z,0.70
2019-03-17T05:15:46.154Z,0.85
2019-03-17T05:18:14.294Z,0.90
2019-03-17T05:20:42.411Z,0.85
2019-03-17T05:23:10.818Z,0.70
2019-03-17T05:25:38.967Z,1.10
2019-03-17T05:28:07.033Z,0.88
2019-03-17T05:30:35.149Z,1.10
2019-03-17T05:33:03.227Z,0.70
2019-03-17T05:35:31.342Z,0.70
2019-03-17T05:37:59.518Z,0.50
2019-03-17T05:40:27.618Z,1.17
2019-03-17T05:42:55.962Z,0.82
2019-03-17T05:45:24.040Z,1.27
2019-03-17T05:47:52.096Z,0.90
2019-03-17T05:50:20.237Z,0.90
2019-03-17T05:52:48.336Z,0.80
2019-03-17T05:55:16.431Z,0.90
2019-03-17T05:57:44.623Z,0.82
2019-03-17T06:00:13.541Z,0.80
2019-03-17T06:02:41.649Z,0.93
2019-03-17T06:05:09.792Z,1.00
2019-03-17T06:07:37.877Z,1.10
2019-03-17T06:10:06.927Z,0.93
2019-03-17T06:12:35.176Z,0.80
2019-03-17T06:15:03.342Z,1.17
2019-03-17T06:17:31.470Z,0.70
2019-03-17T06:20:00.976Z,0.80
2019-03-17T06:22:29.122Z,1.10
2019-03-17T06:24:57.192Z,1.00
2019-03-17T06:27:25.266Z,0.90
2019-03-17T06:29:53.318Z,0.95
2019-03-17T06:32:21.411Z,0.90
2019-03-17T06:34:49.564Z,1.02
2019-03-17T06:37:30.266Z,1.10
2019-03-17T06:39:47.547Z,0.80
2019-03-17T06:42:15.614Z,0.80
2019-03-17T06:44:44.686Z,1.05
2019-03-17T06:47:12.754Z,0.80
2019-03-17T06:49:41.030Z,0.60
2019-03-17T06:52:09.155Z,0.90
2019-03-17T06:54:37.304Z,0.70
2019-03-17T06:57:05.375Z,1.10
2019-03-17T06:59:33.441Z,1.07
2019-03-17T07:02:01.513Z,0.95
2019-03-17T07:04:29.589Z,1.30
2019-03-17T07:06:58.609Z,1.20
2019-03-17T07:09:26.705Z,0.65
2019-03-17T07:11:54.813Z,0.85
2019-03-17T07:14:22.963Z,0.70
2019-03-17T07:16:51.258Z,1.20
2019-03-17T07:19:19.382Z,1.10
2019-03-17T07:21:47.462Z,0.90
2019-03-17T07:24:15.551Z,0.93
2019-03-17T07:26:44.251Z,0.62
2019-03-17T07:29:12.350Z,1.12
2019-03-17T07:31:40.398Z,1.17
2019-03-17T07:34:09.470Z,0.90
2019-03-17T07:36:37.516Z,1.02
2019-03-17T07:39:11.684Z,0.90
2019-03-17T07:41:36.462Z,0.78
2019-03-17T07:44:04.631Z,0.82
2019-03-17T07:46:32.689Z,0.80
2019-03-17T07:49:00.894Z,0.98
2019-03-17T07:51:28.965Z,0.72
2019-03-17T07:53:58.505Z,0.50
2019-03-17T07:56:26.567Z,0.45
2019-03-17T07:58:54.644Z,0.72
2019-03-17T08:01:22.764Z,0.60
2019-03-17T08:03:51.120Z,0.60
2019-03-17T08:06:19.208Z,0.80
2019-03-17T08:08:47.394Z,0.50
2019-03-17T08:11:15.629Z,0.50
2019-03-17T08:13:43.824Z,0.47
2019-03-17T08:16:11.958Z,0.60
2019-03-17T08:18:40.455Z,0.65
2019-03-17T08:21:08.714Z,0.50
2019-03-17T08:23:36.826Z,0.60
2019-03-17T08:26:04.913Z,0.50
2019-03-17T08:28:33.050Z,0.50
2019-03-17T08:31:01.164Z,0.50
2019-03-17T08:33:31.788Z,0.70
2019-03-17T08:36:00.004Z,0.65
2019-03-17T08:38:28.314Z,0.60
2019-03-17T08:40:56.400Z,0.50
2019-03-17T08:43:24.559Z,0.75
2019-03-17T08:45:52.724Z,0.95
2019-03-17T08:48:20.798Z,0.60
2019-03-17T08:50:49.945Z,0.50
2019-03-17T08:53:18.087Z,0.60
2019-03-17T08:55:46.160Z,0.60
2019-03-17T08:58:14.279Z,0.60
2019-03-17T09:00:42.415Z,0.55
2019-03-17T09:03:10.702Z,0.50
2019-03-17T09:05:38.971Z,0.20
2019-03-17T09:08:07.179Z,0.10
2019-03-17T09:10:35.311Z,0.20
2019-03-17T09:13:04.414Z,0.10
2019-03-17T09:15:33.756Z,0.20
2019-03-17T09:18:01.981Z,0.33
2019-03-17T09:20:30.384Z,0.10
2019-03-17T09:22:58.884Z,0.20
2019-03-17T09:25:27.505Z,0.20
2019-03-17T09:27:55.619Z,0.35
2019-03-17T09:30:24.098Z,0.10
2019-03-17T09:32:52.301Z,0.30
2019-03-17T09:35:20.490Z,0.30
2019-03-17T09:37:48.741Z,0.20
2019-03-17T09:40:17.319Z,0.35
2019-03-17T09:42:45.431Z,0.20
2019-03-17T09:45:14.148Z,0.20
2019-03-17T09:47:42.273Z,0.20
2019-03-17T09:50:11.230Z,0.20
2019-03-17T09:52:39.442Z,0.15
2019-03-17T09:55:08.412Z,0.25
2019-03-17T09:57:36.994Z,0.20
2019-03-17T10:00:06.674Z,0.40
2019-03-17T10:05:03.727Z,0.20
2019-03-17T10:07:31.869Z,0.30
2019-03-17T10:09:59.969Z,0.30
2019-03-17T10:12:28.311Z,0.13
2019-03-17T10:14:56.463Z,0.80
2019-03-17T10:17:24.653Z,0.20
2019-03-17T10:19:55.205Z,0.20
2019-03-17T10:22:23.295Z,0.20
2019-03-17T10:24:51.743Z,0.20
2019-03-17T10:27:19.933Z,0.30
2019-03-17T10:29:48.064Z,0.28
2019-03-17T10:32:16.552Z,0.30
2019-03-17T10:34:44.688Z,0.42
2019-03-17T10:37:12.893Z,0.30
2019-03-17T10:39:41.292Z,0.20
2019-03-17T10:42:09.402Z,0.37
2019-03-17T10:44:37.572Z,0.20
2019-03-17T10:47:05.702Z,0.40
2019-03-17T10:49:33.788Z,0.35
2019-03-17T10:52:01.992Z,0.30
2019-03-17T10:54:30.173Z,0.40
2019-03-17T10:56:58.345Z,0.30
2019-03-17T10:59:27.650Z,0.20
2019-03-17T11:01:56.157Z,0.42
2019-03-17T11:04:24.386Z,0.60
2019-03-17T11:06:52.526Z,0.33
2019-03-17T11:09:25.272Z,0.35
2019-03-17T11:11:51.870Z,0.40
2019-03-17T11:14:19.952Z,0.28
2019-03-17T11:16:48.120Z,0.30
2019-03-17T11:19:16.181Z,0.40
2019-03-17T11:21:44.379Z,0.50
2019-03-17T11:24:12.531Z,0.42
2019-03-17T11:26:40.715Z,0.53
2019-03-17T11:29:08.794Z,0.30
2019-03-17T11:31:37.339Z,0.30
2019-03-17T11:34:05.441Z,0.50
2019-03-17T11:36:33.589Z,0.42
2019-03-17T11:39:01.675Z,0.40
2019-03-17T11:41:31.102Z,0.50
2019-03-17T11:43:59.238Z,0.35
2019-03-17T11:46:27.410Z,0.40
2019-03-17T11:48:55.633Z,0.40
2019-03-17T11:51:23.748Z,0.37
2019-03-17T11:53:52.254Z,0.40
2019-03-17T11:56:20.393Z,0.53
2019-03-17T11:58:48.504Z,0.40
2019-03-17T12:01:18.028Z,0.60
2019-03-17T12:03:46.842Z,0.30
2019-03-17T12:06:16.776Z,0.40
2019-03-17T12:08:44.901Z,0.40
2019-03-17T12:11:13.042Z,0.50
2019-03-17T12:13:42.351Z,0.42
2019-03-17T12:16:10.417Z,0.42
2019-03-17T12:18:38.501Z,0.40
2019-03-17T12:21:06.620Z,0.47
2019-03-17T12:23:35.311Z,0.60
2019-03-17T12:26:03.578Z,0.40
2019-03-17T12:28:31.726Z,0.40
2019-03-17T12:31:01.841Z,0.50
2019-03-17T12:33:29.667Z,0.40
2019-03-17T12:35:57.849Z,0.30
2019-03-17T12:38:25.945Z,0.45
2019-03-17T12:40:54.186Z,0.47
2019-03-17T12:43:22.402Z,0.40
2019-03-17T12:45:50.578Z,0.60
2019-03-17T12:48:18.728Z,0.33
2019-03-17T12:50:46.907Z,0.30
2019-03-17T12:53:15.099Z,0.40
2019-03-17T12:55:43.176Z,0.30
2019-03-17T12:58:11.332Z,0.30
2019-03-17T13:00:39.402Z,0.30
2019-03-17T13:03:07.501Z,0.30
2019-03-17T13:05:35.613Z,0.30
2019-03-17T13:08:05.497Z,0.30
2019-03-17T13:10:33.636Z,0.40
2019-03-17T13:13:01.772Z,0.20
2019-03-17T13:15:29.862Z,0.30
2019-03-17T13:17:57.953Z,0.20
2019-03-17T13:20:29.618Z,0.30
2019-03-17T13:25:24.193Z,0.35
2019-03-17T13:27:52.335Z,0.30
2019-03-17T13:30:20.448Z,0.30
2019-03-17T13:32:48.556Z,0.30
2019-03-17T13:35:16.831Z,0.30
2019-03-17T13:37:44.987Z,0.30
2019-03-17T13:40:13.820Z,0.50
2019-03-17T13:42:42.080Z,0.40
2019-03-17T13:45:11.398Z,0.30
2019-03-17T13:47:40.712Z,0.30
2019-03-17T13:50:10.467Z,0.20
2019-03-17T13:52:38.727Z,0.33
2019-03-17T13:55:06.949Z,0.37
2019-03-17T13:57:35.055Z,0.33
2019-03-17T14:00:03.526Z,0.20
2019-03-17T14:02:31.653Z,0.20
2019-03-17T14:04:59.883Z,0.30
2019-03-17T14:07:27.963Z,0.23
2019-03-17T14:09:57.130Z,0.30
2019-03-17T14:12:25.675Z,0.30
2019-03-17T14:14:53.820Z,0.20
2019-03-17T14:17:21.884Z,0.20
2019-03-17T14:19:50.041Z,0.15
2019-03-17T14:22:18.170Z,0.10
2019-03-17T14:24:46.256Z,0.00
2019-03-17T14:27:14.372Z,0.10
2019-03-17T14:29:44.141Z,0.10
2019-03-17T14:32:12.258Z,0.10
2019-03-17T14:34:40.412Z,0.13
2019-03-17T14:37:08.764Z,0.10
2019-03-17T14:39:36.883Z,0.10
2019-03-17T14:42:05.261Z,0.13
2019-03-17T14:44:33.448Z,0.15
2019-03-17T14:47:01.563Z,0.15
2019-03-17T14:49:29.624Z,0.10
2019-03-17T14:51:57.716Z,0.10
2019-03-17T14:54:25.800Z,0.20
2019-03-17T14:56:53.993Z,0.20
2019-03-17T14:59:22.164Z,0.20
2019-03-17T15:01:50.269Z,0.10
2019-03-17T15:04:18.514Z,0.20
2019-03-17T15:06:46.639Z,0.10
2019-03-17T15:09:16.458Z,0.20
2019-03-17T15:11:44.646Z,0.47
2019-03-17T15:14:12.796Z,0.20
2019-03-17T15:16:40.974Z,0.30
2019-03-17T15:19:09.207Z,0.20
2019-03-17T15:21:37.450Z,0.10
2019-03-17T15:24:05.604Z,0.20
2019-03-17T15:26:33.697Z,0.10
2019-03-17T15:29:01.945Z,0.10
2019-03-17T15:31:30.092Z,0.20
2019-03-17T15:33:58.243Z,0.10
2019-03-17T15:36:27.920Z,0.20
2019-03-17T15:38:56.063Z,0.35
2019-03-17T15:41:24.285Z,0.20
2019-03-17T15:43:52.435Z,0.13
2019-03-17T15:46:20.950Z,0.37
2019-03-17T15:48:49.225Z,0.20
2019-03-17T15:51:20.735Z,0.20
2019-03-17T15:53:47.197Z,0.20
2019-03-17T15:56:15.820Z,0.28
2019-03-17T15:58:43.990Z,0.20
2019-03-17T16:01:12.229Z,0.20
2019-03-17T16:03:40.380Z,0.30
2019-03-17T16:06:08.522Z,0.30
2019-03-17T16:08:36.748Z,0.10
2019-03-17T16:11:04.914Z,0.30
2019-03-17T16:13:33.313Z,0.20
2019-03-17T16:16:01.493Z,0.20
2019-03-17T16:18:29.760Z,0.30
2019-03-17T16:20:58.002Z,0.30
2019-03-17T16:23:26.103Z,0.30
2019-03-17T16:25:54.274Z,0.30
2019-03-17T16:28:22.414Z,0.40
2019-03-17T16:30:50.632Z,0.30
2019-03-17T16:33:18.788Z,0.25
2019-03-17T16:35:47.141Z,0.35
2019-03-17T16:38:15.306Z,0.47
2019-03-17T16:40:43.410Z,0.40
2019-03-17T16:43:11.484Z,0.20
2019-03-17T16:45:39.653Z,0.20
2019-03-17T16:48:07.748Z,0.23
2019-03-17T16:50:36.003Z,0.23
2019-03-17T16:53:04.296Z,0.30
2019-03-17T16:55:32.422Z,0.30
2019-03-17T16:58:00.725Z,0.30
2019-03-17T17:00:28.933Z,0.40
2019-03-17T17:02:57.150Z,0.20
2019-03-17T17:05:25.680Z,0.30
2019-03-17T17:07:53.838Z,0.28
2019-03-17T17:10:22.659Z,0.28
2019-03-17T17:12:50.791Z,0.28
2019-03-17T17:15:19.995Z,0.17
2019-03-17T17:17:49.181Z,0.20
2019-03-17T17:20:19.090Z,0.30
2019-03-17T17:25:15.840Z,0.30
2019-03-17T17:27:43.997Z,0.20
2019-03-17T17:30:21.458Z,0.15
2019-03-17T17:32:49.713Z,0.30
2019-03-17T17:35:18.887Z,0.25
2019-03-17T17:37:46.967Z,0.10
2019-03-17T17:40:18.598Z,0.25
2019-03-17T17:42:47.669Z,0.20
2019-03-17T17:45:19.679Z,0.20
2019-03-17T17:47:47.754Z,0.30
2019-03-17T17:50:17.439Z,0.37
2019-03-17T17:52:45.520Z,0.40
2019-03-17T17:55:13.658Z,0.50
2019-03-17T17:57:41.829Z,0.50
2019-03-17T18:00:14.572Z,0.40
2019-03-17T18:02:42.717Z,0.33
2019-03-17T18:05:11.014Z,0.35
2019-03-17T18:07:39.087Z,0.40
2019-03-17T18:10:08.728Z,0.30
2019-03-17T18:12:37.238Z,0.40
2019-03-17T18:15:06.911Z,0.40
2019-03-17T18:17:35.016Z,0.40
2019-03-17T18:20:04.260Z,0.40
2019-03-17T18:22:32.378Z,0.50
2019-03-17T18:25:06.597Z,0.60
2019-03-17T18:27:39.584Z,0.40
2019-03-17T18:30:14.964Z,0.40
2019-03-17T18:32:43.310Z,0.50
2019-03-17T18:35:11.643Z,0.40
2019-03-17T18:37:39.880Z,0.40
2019-03-17T18:40:09.489Z,0.40
2019-03-17T18:42:37.604Z,0.30
2019-03-17T18:45:07.222Z,0.30
2019-03-17T18:47:35.281Z,0.30
2019-03-17T18:50:04.424Z,0.20
2019-03-17T18:52:32.502Z,0.30
2019-03-17T18:55:01.764Z,0.33
2019-03-17T18:57:29.974Z,0.42
2019-03-17T18:59:59.977Z,0.30
2019-03-17T19:02:28.113Z,0.30
2019-03-17T19:04:57.249Z,0.35
2019-03-17T19:07:25.328Z,0.40
2019-03-17T19:09:53.517Z,0.42
2019-03-17T19:12:21.977Z,0.40
2019-03-17T19:14:54.488Z,0.47
2019-03-17T19:17:24.085Z,0.30
2019-03-17T19:19:52.255Z,0.40
2019-03-17T19:22:23.485Z,0.30
2019-03-17T19:24:56.834Z,0.40
2019-03-17T19:27:25.263Z,0.30
2019-03-17T19:29:53.363Z,0.40
2019-03-17T19:32:21.596Z,0.40
2019-03-17T19:34:49.700Z,0.30
2019-03-17T19:37:17.823Z,0.30
2019-03-17T19:39:45.880Z,0.30
2019-03-17T19:42:13.986Z,0.30
2019-03-17T19:44:42.436Z,0.37
2019-03-17T19:47:10.857Z,0.30
2019-03-17T19:49:39.094Z,0.30
2019-03-17T19:52:07.208Z,0.28
2019-03-17T19:54:35.270Z,0.33
2019-03-17T19:57:03.417Z,0.30
2019-03-17T19:59:32.595Z,0.20
2019-03-17T20:02:01.095Z,0.30
2019-03-17T20:04:32.508Z,0.37
2019-03-17T20:06:59.134Z,0.60
2019-03-17T20:09:27.292Z,0.50
2019-03-17T20:11:55.361Z,0.50
2019-03-17T20:14:24.807Z,0.23
2019-03-17T20:16:52.928Z,0.30
2019-03-17T20:19:21.013Z,0.50
2019-03-17T20:21:49.136Z,0.40
2019-03-17T20:24:17.233Z,0.55
2019-03-17T20:26:45.299Z,0.60
2019-03-17T20:29:13.475Z,0.40
2019-03-17T20:31:41.956Z,0.60
2019-03-17T20:34:10.040Z,0.50
2019-03-17T20:36:38.282Z,0.45
2019-03-17T20:39:06.433Z,0.30
2019-03-17T20:41:34.864Z,0.35
2019-03-17T20:44:03.123Z,0.30
2019-03-17T20:46:32.451Z,0.50
2019-03-17T20:49:00.609Z,0.40
2019-03-17T20:51:28.806Z,0.28
2019-03-17T20:53:56.944Z,0.30
2019-03-17T20:56:25.340Z,0.45
2019-03-17T20:58:54.489Z,0.37
2019-03-17T21:01:22.653Z,0.30
2019-03-17T21:03:50.743Z,0.30
2019-03-17T21:06:18.907Z,0.30
2019-03-17T21:08:47.021Z,0.60
2019-03-17T21:11:15.451Z,0.60
2019-03-17T21:13:46.914Z,0.62
2019-03-17T21:16:13.385Z,0.50
2019-03-17T21:18:41.535Z,0.62
2019-03-17T21:21:09.816Z,0.60
2019-03-17T21:23:37.958Z,1.00
2019-03-17T21:26:07.308Z,1.27
2019-03-17T21:28:35.443Z,1.27
2019-03-17T21:31:03.623Z,1.15
2019-03-17T21:33:32.691Z,0.88
2019-03-17T21:36:00.758Z,0.90
2019-03-17T21:38:28.830Z,0.85
2019-03-17T21:41:06.815Z,0.70
2019-03-17T21:43:26.782Z,0.80
2019-03-17T21:45:54.890Z,0.80
2019-03-17T21:48:23.012Z,1.10
2019-03-17T21:50:52.626Z,0.80
2019-03-17T21:53:21.853Z,1.02
2019-03-17T21:55:49.964Z,0.50
2019-03-17T21:58:20.465Z,0.60
2019-03-17T22:00:48.751Z,0.70
2019-03-17T22:03:17.329Z,0.75
2019-03-17T22:05:46.266Z,0.60
2019-03-17T22:08:14.925Z,0.50
2019-03-17T22:10:43.002Z,0.40
2019-03-17T22:13:11.066Z,0.50
2019-03-17T22:15:39.147Z,0.30
2019-03-17T22:18:07.435Z,0.50
2019-03-17T22:20:36.124Z,0.50
2019-03-17T22:23:04.277Z,0.50
2019-03-17T22:25:36.448Z,0.50
2019-03-17T22:28:08.658Z,0.40
2019-03-17T22:30:34.393Z,0.60
2019-03-17T22:33:03.476Z,0.50
2019-03-17T22:35:31.543Z,0.50
2019-03-17T22:37:59.701Z,0.53
2019-03-17T22:40:27.951Z,0.60
2019-03-17T22:42:56.165Z,0.60
2019-03-17T22:45:24.385Z,0.80
2019-03-17T22:47:52.458Z,0.62
2019-03-17T22:50:20.659Z,0.40
2019-03-17T22:52:48.816Z,0.47
2019-03-17T22:55:17.000Z,0.70
2019-03-17T22:57:45.206Z,0.70
2019-03-17T23:00:21.740Z,0.55
2019-03-17T23:02:51.486Z,0.75
2019-03-17T23:05:19.688Z,0.62
2019-03-17T23:07:47.826Z,0.98
2019-03-17T23:10:17.026Z,0.95
2019-03-17T23:12:45.089Z,0.70
2019-03-17T23:15:13.302Z,0.60
2019-03-17T23:17:41.438Z,1.00
2019-03-17T23:20:11.445Z,1.00
2019-03-17T23:22:39.554Z,0.60
2019-03-17T23:25:08.618Z,0.60
2019-03-17T23:27:36.726Z,0.82
2019-03-17T23:30:17.947Z,0.70
2019-03-17T23:32:48.954Z,0.82
2019-03-17T23:35:16.290Z,0.60
2019-03-17T23:37:44.344Z,0.98
2019-03-17T23:40:14.461Z,1.02
2019-03-17T23:42:42.649Z,0.95
2019-03-17T23:45:11.402Z,0.90
2019-03-17T23:47:39.458Z,1.62
2019-03-17T23:50:08.321Z,0.78
2019-03-17T23:52:36.555Z,0.70
2019-03-17T23:55:05.517Z,0.90
2019-03-17T23:57:33.732Z,1.00
